sensor_id;sensor_type;location;lat;lon;timestamp;pressure;altitude;pressure_sealevel;temperature;humidity
18527;BME280;9393;42.158;24.748;2022-08-04T00:00:04;99541.22;;;27.86;46.86
18527;BME280;9393;42.158;24.748;2022-08-04T00:03:13;99543.41;;;27.62;46.87
18527;BME280;9393;42.158;24.748;2022-08-04T00:06:27;99550.78;;;27.28;47.75
18527;BME280;9393;42.158;24.748;2022-08-04T00:09:40;99548.91;;;27.29;47.49
18527;BME280;9393;42.158;24.748;2022-08-04T00:12:50;99553.88;;;27.42;46.93
18527;BME280;9393;42.158;24.748;2022-08-04T00:16:21;99557.50;;;27.52;46.60
18527;BME280;9393;42.158;24.748;2022-08-04T00:19:38;99556.47;;;27.53;46.38
18527;BME280;9393;42.158;24.748;2022-08-04T00:22:45;99554.78;;;27.47;46.51
18527;BME280;9393;42.158;24.748;2022-08-04T00:25:53;99558.41;;;27.41;46.60
18527;BME280;9393;42.158;24.748;2022-08-04T00:28:59;99558.31;;;27.53;46.44
18527;BME280;9393;42.158;24.748;2022-08-04T00:32:08;99560.28;;;27.63;46.16
18527;BME280;9393;42.158;24.748;2022-08-04T00:35:38;99569.66;;;27.60;46.52
18527;BME280;9393;42.158;24.748;2022-08-04T00:39:28;99562.31;;;27.50;46.80
18527;BME280;9393;42.158;24.748;2022-08-04T00:42:43;99569.03;;;27.53;47.19
18527;BME280;9393;42.158;24.748;2022-08-04T00:46:34;99569.41;;;27.40;47.77
18527;BME280;9393;42.158;24.748;2022-08-04T00:50:11;99571.41;;;27.06;48.77
18527;BME280;9393;42.158;24.748;2022-08-04T01:00:50;99566.13;;;26.94;48.79
18527;BME280;9393;42.158;24.748;2022-08-04T01:04:14;99573.13;;;27.17;48.81
18527;BME280;9393;42.158;24.748;2022-08-04T01:07:52;99563.19;;;27.13;48.82
18527;BME280;9393;42.158;24.748;2022-08-04T01:11:13;99574.72;;;26.96;49.19
18527;BME280;9393;42.158;24.748;2022-08-04T01:18:19;99572.81;;;26.75;50.26
18527;BME280;9393;42.158;24.748;2022-08-04T01:21:51;99569.22;;;26.86;50.22
18527;BME280;9393;42.158;24.748;2022-08-04T01:25:11;99574.94;;;26.56;50.98
18527;BME280;9393;42.158;24.748;2022-08-04T01:28:29;99579.03;;;26.81;50.98
18527;BME280;9393;42.158;24.748;2022-08-04T01:31:59;99575.53;;;26.80;50.50
18527;BME280;9393;42.158;24.748;2022-08-04T01:35:04;99582.69;;;26.75;50.91
18527;BME280;9393;42.158;24.748;2022-08-04T01:38:27;99580.56;;;26.77;50.89
18527;BME280;9393;42.158;24.748;2022-08-04T01:42:16;99583.91;;;26.84;51.00
18527;BME280;9393;42.158;24.748;2022-08-04T01:45:35;99586.19;;;26.92;51.03
18527;BME280;9393;42.158;24.748;2022-08-04T01:48:44;99579.94;;;26.70;51.87
18527;BME280;9393;42.158;24.748;2022-08-04T01:51:49;99590.09;;;26.51;52.75
18527;BME280;9393;42.158;24.748;2022-08-04T01:54:56;99573.31;;;26.39;52.86
18527;BME280;9393;42.158;24.748;2022-08-04T01:58:00;99573.31;;;26.22;53.39
18527;BME280;9393;42.158;24.748;2022-08-04T02:01:04;99565.38;;;26.44;52.55
18527;BME280;9393;42.158;24.748;2022-08-04T02:04:14;99565.44;;;26.49;52.32
18527;BME280;9393;42.158;24.748;2022-08-04T02:07:31;99572.34;;;26.45;52.27
18527;BME280;9393;42.158;24.748;2022-08-04T02:10:53;99578.25;;;26.47;52.25
18527;BME280;9393;42.158;24.748;2022-08-04T02:14:06;99576.63;;;26.29;53.09
18527;BME280;9393;42.158;24.748;2022-08-04T02:17:17;99573.81;;;26.19;53.57
18527;BME280;9393;42.158;24.748;2022-08-04T02:20:29;99585.16;;;26.26;53.34
18527;BME280;9393;42.158;24.748;2022-08-04T02:23:37;99590.81;;;26.30;52.88
18527;BME280;9393;42.158;24.748;2022-08-04T02:26:45;99593.81;;;26.33;52.66
18527;BME280;9393;42.158;24.748;2022-08-04T02:29:53;99585.97;;;26.27;53.04
18527;BME280;9393;42.158;24.748;2022-08-04T02:33:02;99582.53;;;26.31;52.51
18527;BME280;9393;42.158;24.748;2022-08-04T02:36:12;99584.41;;;26.31;52.14
18527;BME280;9393;42.158;24.748;2022-08-04T02:39:18;99585.31;;;26.36;51.63
18527;BME280;9393;42.158;24.748;2022-08-04T02:42:25;99588.34;;;26.11;52.20
18527;BME280;9393;42.158;24.748;2022-08-04T02:45:33;99579.63;;;26.33;51.65
18527;BME280;9393;42.158;24.748;2022-08-04T02:48:42;99587.59;;;25.99;52.42
18527;BME280;9393;42.158;24.748;2022-08-04T02:51:51;99584.50;;;25.62;53.50
18527;BME280;9393;42.158;24.748;2022-08-04T02:54:58;99579.69;;;25.76;53.03
18527;BME280;9393;42.158;24.748;2022-08-04T02:58:05;99581.13;;;25.95;52.48
18527;BME280;9393;42.158;24.748;2022-08-04T03:01:10;99583.44;;;25.75;53.22
18527;BME280;9393;42.158;24.748;2022-08-04T03:04:24;99577.97;;;25.98;53.04
18527;BME280;9393;42.158;24.748;2022-08-04T03:07:58;99586.75;;;25.42;54.67
18527;BME280;9393;42.158;24.748;2022-08-04T03:15:08;99592.53;;;25.91;53.39
18527;BME280;9393;42.158;24.748;2022-08-04T03:18:48;99595.00;;;25.81;53.67
18527;BME280;9393;42.158;24.748;2022-08-04T03:22:23;99592.97;;;25.71;54.23
18527;BME280;9393;42.158;24.748;2022-08-04T03:26:07;99600.31;;;25.64;54.13
18527;BME280;9393;42.158;24.748;2022-08-04T03:29:31;99591.84;;;25.55;54.94
18527;BME280;9393;42.158;24.748;2022-08-04T03:32:59;99595.22;;;25.79;53.78
18527;BME280;9393;42.158;24.748;2022-08-04T03:43:44;99596.91;;;26.13;53.21
18527;BME280;9393;42.158;24.748;2022-08-04T03:51:02;99595.28;;;26.41;52.41
18527;BME280;9393;42.158;24.748;2022-08-04T03:55:15;99593.84;;;27.05;50.56
18527;BME280;9393;42.158;24.748;2022-08-04T04:02:32;99590.00;;;27.39;49.77
18527;BME280;9393;42.158;24.748;2022-08-04T04:05:54;99595.66;;;26.83;50.98
18527;BME280;9393;42.158;24.748;2022-08-04T04:09:26;99592.63;;;27.56;49.45
18527;BME280;9393;42.158;24.748;2022-08-04T04:13:13;99594.56;;;27.39;49.67
18527;BME280;9393;42.158;24.748;2022-08-04T04:16:43;99599.16;;;26.67;51.23
18527;BME280;9393;42.158;24.748;2022-08-04T04:20:04;99606.88;;;27.18;50.03
18527;BME280;9393;42.158;24.748;2022-08-04T04:23:30;99605.25;;;26.79;51.93
18527;BME280;9393;42.158;24.748;2022-08-04T04:26:51;99608.47;;;26.81;51.58
18527;BME280;9393;42.158;24.748;2022-08-04T04:30:03;99610.41;;;26.52;54.00
18527;BME280;9393;42.158;24.748;2022-08-04T04:33:24;99612.28;;;27.01;54.99
18527;BME280;9393;42.158;24.748;2022-08-04T04:36:38;99603.75;;;27.04;51.42
18527;BME280;9393;42.158;24.748;2022-08-04T04:39:56;99614.41;;;27.86;51.91
18527;BME280;9393;42.158;24.748;2022-08-04T04:43:12;99615.84;;;27.29;51.19
18527;BME280;9393;42.158;24.748;2022-08-04T04:46:33;99620.19;;;27.35;52.39
18527;BME280;9393;42.158;24.748;2022-08-04T04:49:45;99618.13;;;28.07;50.18
18527;BME280;9393;42.158;24.748;2022-08-04T04:52:57;99621.94;;;28.43;51.54
18527;BME280;9393;42.158;24.748;2022-08-04T04:56:10;99614.53;;;28.23;51.68
18527;BME280;9393;42.158;24.748;2022-08-04T04:59:20;99616.44;;;28.01;50.30
18527;BME280;9393;42.158;24.748;2022-08-04T05:02:43;99612.63;;;28.82;49.86
18527;BME280;9393;42.158;24.748;2022-08-04T05:05:59;99621.97;;;28.75;48.31
18527;BME280;9393;42.158;24.748;2022-08-04T05:09:29;99621.91;;;29.12;48.51
18527;BME280;9393;42.158;24.748;2022-08-04T05:12:42;99624.28;;;29.03;49.60
18527;BME280;9393;42.158;24.748;2022-08-04T05:16:17;99623.97;;;28.94;46.94
18527;BME280;9393;42.158;24.748;2022-08-04T05:19:25;99634.16;;;29.44;49.76
18527;BME280;9393;42.158;24.748;2022-08-04T05:22:35;99634.16;;;29.39;46.65
18527;BME280;9393;42.158;24.748;2022-08-04T05:25:43;99633.53;;;28.80;45.15
18527;BME280;9393;42.158;24.748;2022-08-04T05:29:04;99632.94;;;29.15;44.99
18527;BME280;9393;42.158;24.748;2022-08-04T05:32:11;99627.03;;;29.18;44.38
18527;BME280;9393;42.158;24.748;2022-08-04T05:35:20;99625.13;;;29.08;44.91
18527;BME280;9393;42.158;24.748;2022-08-04T05:38:45;99649.00;;;29.05;44.66
18527;BME280;9393;42.158;24.748;2022-08-04T05:41:54;99643.84;;;28.30;46.55
18527;BME280;9393;42.158;24.748;2022-08-04T05:45:07;99638.31;;;27.66;47.35
18527;BME280;9393;42.158;24.748;2022-08-04T05:48:11;99636.44;;;26.73;49.07
18527;BME280;9393;42.158;24.748;2022-08-04T05:51:15;99639.28;;;27.00;48.92
18527;BME280;9393;42.158;24.748;2022-08-04T05:54:19;99636.91;;;27.42;48.06
18527;BME280;9393;42.158;24.748;2022-08-04T05:57:25;99637.78;;;27.91;46.94
18527;BME280;9393;42.158;24.748;2022-08-04T06:00:29;99634.03;;;28.77;45.40
18527;BME280;9393;42.158;24.748;2022-08-04T06:03:43;99632.13;;;28.73;45.33
18527;BME280;9393;42.158;24.748;2022-08-04T06:06:48;99630.03;;;28.80;45.09
18527;BME280;9393;42.158;24.748;2022-08-04T06:09:52;99635.19;;;28.54;45.52
18527;BME280;9393;42.158;24.748;2022-08-04T06:13:00;99632.16;;;29.25;44.64
18527;BME280;9393;42.158;24.748;2022-08-04T06:16:05;99635.19;;;29.95;43.33
18527;BME280;9393;42.158;24.748;2022-08-04T06:19:39;99637.03;;;29.90;43.98
18527;BME280;9393;42.158;24.748;2022-08-04T06:23:06;99634.94;;;30.27;42.59
18527;BME280;9393;42.158;24.748;2022-08-04T06:26:12;99627.69;;;30.18;43.19
18527;BME280;9393;42.158;24.748;2022-08-04T06:29:22;99636.13;;;29.59;43.81
18527;BME280;9393;42.158;24.748;2022-08-04T06:32:30;99622.28;;;29.97;43.03
18527;BME280;9393;42.158;24.748;2022-08-04T06:35:48;99623.94;;;30.39;41.85
18527;BME280;9393;42.158;24.748;2022-08-04T06:38:53;99618.53;;;30.24;42.11
18527;BME280;9393;42.158;24.748;2022-08-04T06:42:00;99627.41;;;30.95;41.32
18527;BME280;9393;42.158;24.748;2022-08-04T06:45:27;99625.91;;;31.48;39.33
18527;BME280;9393;42.158;24.748;2022-08-04T06:48:31;99631.00;;;31.60;39.08
18527;BME280;9393;42.158;24.748;2022-08-04T06:51:36;99625.13;;;31.42;38.90
18527;BME280;9393;42.158;24.748;2022-08-04T06:54:51;99613.16;;;31.74;38.74
18527;BME280;9393;42.158;24.748;2022-08-04T06:57:57;99619.22;;;31.99;38.49
18527;BME280;9393;42.158;24.748;2022-08-04T07:01:06;99619.91;;;32.20;37.98
18527;BME280;9393;42.158;24.748;2022-08-04T07:04:10;99619.50;;;32.37;37.66
18527;BME280;9393;42.158;24.748;2022-08-04T07:07:14;99623.19;;;32.46;37.45
18527;BME280;9393;42.158;24.748;2022-08-04T07:10:20;99619.75;;;32.40;37.57
18527;BME280;9393;42.158;24.748;2022-08-04T07:13:26;99622.34;;;32.50;37.31
18527;BME280;9393;42.158;24.748;2022-08-04T07:16:31;99623.88;;;32.28;37.47
18527;BME280;9393;42.158;24.748;2022-08-04T07:19:36;99623.94;;;32.51;37.07
18527;BME280;9393;42.158;24.748;2022-08-04T07:22:41;99625.16;;;32.69;36.86
18527;BME280;9393;42.158;24.748;2022-08-04T07:25:49;99626.63;;;32.23;36.87
18527;BME280;9393;42.158;24.748;2022-08-04T07:29:13;99624.34;;;32.35;36.65
18527;BME280;9393;42.158;24.748;2022-08-04T07:32:20;99630.69;;;32.83;36.31
18527;BME280;9393;42.158;24.748;2022-08-04T07:35:26;99626.84;;;33.18;36.10
18527;BME280;9393;42.158;24.748;2022-08-04T07:38:50;99615.47;;;33.21;35.73
18527;BME280;9393;42.158;24.748;2022-08-04T07:41:58;99620.25;;;33.29;35.40
18527;BME280;9393;42.158;24.748;2022-08-04T07:45:03;99621.94;;;33.67;34.86
18527;BME280;9393;42.158;24.748;2022-08-04T07:48:12;99625.16;;;34.07;34.62
18527;BME280;9393;42.158;24.748;2022-08-04T07:51:19;99619.03;;;33.40;35.39
18527;BME280;9393;42.158;24.748;2022-08-04T07:54:24;99608.81;;;33.13;35.19
18527;BME280;9393;42.158;24.748;2022-08-04T07:57:27;99618.03;;;34.16;34.16
18527;BME280;9393;42.158;24.748;2022-08-04T08:00:44;99614.97;;;34.36;33.95
18527;BME280;9393;42.158;24.748;2022-08-04T08:03:52;99609.50;;;34.03;34.31
18527;BME280;9393;42.158;24.748;2022-08-04T08:06:56;99609.84;;;33.60;34.67
18527;BME280;9393;42.158;24.748;2022-08-04T08:10:00;99613.16;;;34.31;33.56
18527;BME280;9393;42.158;24.748;2022-08-04T08:13:03;99603.19;;;34.59;33.26
18527;BME280;9393;42.158;24.748;2022-08-04T08:16:07;99595.09;;;34.27;33.71
18527;BME280;9393;42.158;24.748;2022-08-04T08:19:12;99602.19;;;34.55;33.51
18527;BME280;9393;42.158;24.748;2022-08-04T08:22:16;99595.13;;;34.73;32.79
18527;BME280;9393;42.158;24.748;2022-08-04T08:25:19;99595.34;;;35.04;32.59
18527;BME280;9393;42.158;24.748;2022-08-04T08:28:23;99593.97;;;34.60;33.07
18527;BME280;9393;42.158;24.748;2022-08-04T08:31:26;99597.75;;;34.45;32.73
18527;BME280;9393;42.158;24.748;2022-08-04T08:34:51;99595.25;;;34.95;32.03
18527;BME280;9393;42.158;24.748;2022-08-04T08:37:57;99591.06;;;35.43;31.50
18527;BME280;9393;42.158;24.748;2022-08-04T08:41:40;99593.16;;;35.46;31.28
18527;BME280;9393;42.158;24.748;2022-08-04T08:49:01;99582.28;;;35.96;29.99
18527;BME280;9393;42.158;24.748;2022-08-04T08:52:54;99584.56;;;36.03;29.72
18527;BME280;9393;42.158;24.748;2022-08-04T08:56:29;99584.78;;;35.70;29.92
18527;BME280;9393;42.158;24.748;2022-08-04T08:59:43;99573.19;;;35.02;30.53
18527;BME280;9393;42.158;24.748;2022-08-04T09:06:53;99573.16;;;35.42;29.05
18527;BME280;9393;42.158;24.748;2022-08-04T09:10:11;99572.16;;;34.70;29.31
18527;BME280;9393;42.158;24.748;2022-08-04T09:13:20;99566.53;;;35.08;28.81
18527;BME280;9393;42.158;24.748;2022-08-04T09:16:34;99558.94;;;35.59;27.90
18527;BME280;9393;42.158;24.748;2022-08-04T09:19:43;99555.53;;;36.25;26.97
18527;BME280;9393;42.158;24.748;2022-08-04T09:22:50;99556.09;;;36.67;27.15
18527;BME280;9393;42.158;24.748;2022-08-04T09:26:00;99558.16;;;36.61;26.89
18527;BME280;9393;42.158;24.748;2022-08-04T09:29:13;99549.56;;;36.68;26.73
18527;BME280;9393;42.158;24.748;2022-08-04T09:32:26;99554.94;;;36.59;26.70
18527;BME280;9393;42.158;24.748;2022-08-04T09:35:41;99555.81;;;36.46;27.23
18527;BME280;9393;42.158;24.748;2022-08-04T09:39:02;99547.75;;;36.10;27.65
18527;BME280;9393;42.158;24.748;2022-08-04T09:42:16;99542.66;;;36.39;26.80
18527;BME280;9393;42.158;24.748;2022-08-04T09:45:44;99540.88;;;36.35;26.53
18527;BME280;9393;42.158;24.748;2022-08-04T09:48:55;99536.69;;;35.84;26.98
18527;BME280;9393;42.158;24.748;2022-08-04T09:52:06;99539.00;;;36.13;25.87
18527;BME280;9393;42.158;24.748;2022-08-04T09:55:19;99539.09;;;35.50;26.71
18527;BME280;9393;42.158;24.748;2022-08-04T09:58:43;99531.25;;;36.07;25.83
18527;BME280;9393;42.158;24.748;2022-08-04T10:01:53;99532.34;;;36.50;26.48
18527;BME280;9393;42.158;24.748;2022-08-04T10:05:04;99532.75;;;36.66;25.35
18527;BME280;9393;42.158;24.748;2022-08-04T10:08:21;99520.03;;;35.77;26.41
18527;BME280;9393;42.158;24.748;2022-08-04T10:11:36;99514.84;;;37.04;25.40
18527;BME280;9393;42.158;24.748;2022-08-04T10:15:06;99524.69;;;36.91;25.30
18527;BME280;9393;42.158;24.748;2022-08-04T10:18:22;99516.31;;;36.79;25.22
18527;BME280;9393;42.158;24.748;2022-08-04T10:21:37;99514.03;;;37.04;24.69
18527;BME280;9393;42.158;24.748;2022-08-04T10:25:14;99507.56;;;36.91;24.92
18527;BME280;9393;42.158;24.748;2022-08-04T10:28:43;99512.84;;;36.87;24.83
18527;BME280;9393;42.158;24.748;2022-08-04T10:31:55;99506.72;;;37.38;24.34
18527;BME280;9393;42.158;24.748;2022-08-04T10:35:07;99504.03;;;37.47;24.49
18527;BME280;9393;42.158;24.748;2022-08-04T10:38:30;99492.44;;;37.07;25.14
18527;BME280;9393;42.158;24.748;2022-08-04T10:41:38;99501.13;;;37.43;24.09
18527;BME280;9393;42.158;24.748;2022-08-04T10:44:54;99495.69;;;37.35;24.03
18527;BME280;9393;42.158;24.748;2022-08-04T10:48:06;99497.28;;;37.36;23.75
18527;BME280;9393;42.158;24.748;2022-08-04T10:51:22;99495.50;;;37.31;23.97
18527;BME280;9393;42.158;24.748;2022-08-04T10:54:39;99482.94;;;36.87;24.26
18527;BME280;9393;42.158;24.748;2022-08-04T10:57:51;99481.75;;;37.45;24.17
18527;BME280;9393;42.158;24.748;2022-08-04T11:00:59;99481.94;;;37.66;23.94
18527;BME280;9393;42.158;24.748;2022-08-04T11:04:11;99480.56;;;36.16;24.61
18527;BME280;9393;42.158;24.748;2022-08-04T11:07:29;99480.66;;;36.33;24.71
18527;BME280;9393;42.158;24.748;2022-08-04T11:10:40;99468.41;;;36.44;24.74
18527;BME280;9393;42.158;24.748;2022-08-04T11:13:55;99462.81;;;36.88;24.57
18527;BME280;9393;42.158;24.748;2022-08-04T11:17:03;99459.88;;;36.76;23.65
18527;BME280;9393;42.158;24.748;2022-08-04T11:20:15;99458.00;;;36.37;24.17
18527;BME280;9393;42.158;24.748;2022-08-04T11:23:37;99452.66;;;36.63;23.89
18527;BME280;9393;42.158;24.748;2022-08-04T11:26:48;99445.75;;;37.22;23.64
18527;BME280;9393;42.158;24.748;2022-08-04T11:30:02;99454.22;;;37.04;23.80
18527;BME280;9393;42.158;24.748;2022-08-04T11:33:12;99441.06;;;36.97;23.80
18527;BME280;9393;42.158;24.748;2022-08-04T11:36:29;99433.59;;;37.03;23.84
18527;BME280;9393;42.158;24.748;2022-08-04T11:39:35;99439.50;;;36.09;24.70
18527;BME280;9393;42.158;24.748;2022-08-04T11:42:42;99429.50;;;36.57;24.41
18527;BME280;9393;42.158;24.748;2022-08-04T11:45:57;99424.63;;;37.11;23.13
18527;BME280;9393;42.158;24.748;2022-08-04T11:49:07;99423.53;;;37.12;22.99
18527;BME280;9393;42.158;24.748;2022-08-04T11:52:16;99422.19;;;36.83;24.04
18527;BME280;9393;42.158;24.748;2022-08-04T11:55:26;99415.41;;;36.55;23.61
18527;BME280;9393;42.158;24.748;2022-08-04T11:58:30;99411.41;;;36.13;23.91
18527;BME280;9393;42.158;24.748;2022-08-04T12:01:41;99409.50;;;35.61;25.03
18527;BME280;9393;42.158;24.748;2022-08-04T12:04:55;99401.72;;;35.68;24.91
18527;BME280;9393;42.158;24.748;2022-08-04T12:08:16;99395.66;;;36.32;24.96
18527;BME280;9393;42.158;24.748;2022-08-04T12:11:41;99395.34;;;36.03;24.56
18527;BME280;9393;42.158;24.748;2022-08-04T12:14:50;99392.56;;;35.41;24.89
18527;BME280;9393;42.158;24.748;2022-08-04T12:18:05;99384.22;;;35.82;24.82
18527;BME280;9393;42.158;24.748;2022-08-04T12:21:14;99391.88;;;36.51;24.33
18527;BME280;9393;42.158;24.748;2022-08-04T12:24:27;99391.97;;;36.20;24.28
18527;BME280;9393;42.158;24.748;2022-08-04T12:27:39;99375.34;;;36.86;23.31
18527;BME280;9393;42.158;24.748;2022-08-04T12:30:48;99388.16;;;37.46;23.46
18527;BME280;9393;42.158;24.748;2022-08-04T12:34:06;99385.13;;;37.56;22.86
18527;BME280;9393;42.158;24.748;2022-08-04T12:37:16;99386.88;;;37.43;22.53
18527;BME280;9393;42.158;24.748;2022-08-04T12:40:25;99380.63;;;37.52;22.84
18527;BME280;9393;42.158;24.748;2022-08-04T12:43:36;99372.97;;;37.28;23.14
18527;BME280;9393;42.158;24.748;2022-08-04T12:46:44;99368.34;;;37.03;23.44
18527;BME280;9393;42.158;24.748;2022-08-04T12:49:49;99366.56;;;37.24;23.37
18527;BME280;9393;42.158;24.748;2022-08-04T12:53:10;99367.34;;;37.41;22.80
18527;BME280;9393;42.158;24.748;2022-08-04T12:56:35;99367.69;;;37.49;22.96
18527;BME280;9393;42.158;24.748;2022-08-04T12:59:39;99364.31;;;37.60;22.91
18527;BME280;9393;42.158;24.748;2022-08-04T13:02:43;99365.22;;;37.73;22.74
18527;BME280;9393;42.158;24.748;2022-08-04T13:05:52;99361.75;;;37.38;22.96
18527;BME280;9393;42.158;24.748;2022-08-04T13:09:02;99364.28;;;36.57;23.45
18527;BME280;9393;42.158;24.748;2022-08-04T13:12:14;99356.66;;;35.58;24.40
18527;BME280;9393;42.158;24.748;2022-08-04T13:15:21;99368.31;;;35.89;24.83
18527;BME280;9393;42.158;24.748;2022-08-04T13:18:26;99354.22;;;36.10;24.56
18527;BME280;9393;42.158;24.748;2022-08-04T13:21:34;99347.09;;;36.31;23.98
18527;BME280;9393;42.158;24.748;2022-08-04T13:25:03;99352.38;;;35.96;24.71
18527;BME280;9393;42.158;24.748;2022-08-04T13:28:28;99352.53;;;35.91;24.69
18527;BME280;9393;42.158;24.748;2022-08-04T13:31:35;99356.84;;;36.32;23.41
18527;BME280;9393;42.158;24.748;2022-08-04T13:34:40;99358.06;;;36.82;23.28
18527;BME280;9393;42.158;24.748;2022-08-04T13:37:54;99358.16;;;36.52;23.40
18527;BME280;9393;42.158;24.748;2022-08-04T13:40:59;99349.63;;;36.75;23.40
18527;BME280;9393;42.158;24.748;2022-08-04T13:44:07;99353.41;;;36.57;23.76
18527;BME280;9393;42.158;24.748;2022-08-04T13:47:24;99353.69;;;36.47;22.94
18527;BME280;9393;42.158;24.748;2022-08-04T13:50:31;99348.41;;;36.42;23.46
18527;BME280;9393;42.158;24.748;2022-08-04T13:53:37;99347.63;;;36.50;23.07
18527;BME280;9393;42.158;24.748;2022-08-04T13:56:46;99341.28;;;36.80;22.97
18527;BME280;9393;42.158;24.748;2022-08-04T13:59:57;99337.03;;;36.23;22.49
18527;BME280;9393;42.158;24.748;2022-08-04T14:03:03;99331.28;;;36.41;22.40
18527;BME280;9393;42.158;24.748;2022-08-04T14:06:27;99340.50;;;36.88;21.84
18527;BME280;9393;42.158;24.748;2022-08-04T14:09:32;99331.22;;;36.98;22.16
18527;BME280;9393;42.158;24.748;2022-08-04T14:12:43;99324.16;;;37.31;22.52
18527;BME280;9393;42.158;24.748;2022-08-04T14:15:49;99320.31;;;37.50;21.76
18527;BME280;9393;42.158;24.748;2022-08-04T14:19:04;99330.66;;;37.73;21.68
18527;BME280;9393;42.158;24.748;2022-08-04T14:22:09;99323.66;;;37.38;22.02
18527;BME280;9393;42.158;24.748;2022-08-04T14:25:29;99324.47;;;37.56;21.71
18527;BME280;9393;42.158;24.748;2022-08-04T14:28:36;99323.69;;;37.21;21.88
18527;BME280;9393;42.158;24.748;2022-08-04T14:32:02;99325.94;;;37.10;21.95
18527;BME280;9393;42.158;24.748;2022-08-04T14:35:14;99327.22;;;37.30;21.42
18527;BME280;9393;42.158;24.748;2022-08-04T14:38:18;99318.72;;;37.49;21.66
18527;BME280;9393;42.158;24.748;2022-08-04T14:41:24;99317.34;;;37.17;21.52
18527;BME280;9393;42.158;24.748;2022-08-04T14:44:28;99314.28;;;36.75;21.89
18527;BME280;9393;42.158;24.748;2022-08-04T14:47:40;99313.81;;;36.99;21.59
18527;BME280;9393;42.158;24.748;2022-08-04T14:50:54;99317.22;;;36.31;22.00
18527;BME280;9393;42.158;24.748;2022-08-04T14:53:57;99305.97;;;35.67;22.30
18527;BME280;9393;42.158;24.748;2022-08-04T14:57:07;99312.09;;;35.81;22.40
18527;BME280;9393;42.158;24.748;2022-08-04T15:00:11;99313.84;;;35.55;23.26
18527;BME280;9393;42.158;24.748;2022-08-04T15:03:21;99305.53;;;35.52;23.25
18527;BME280;9393;42.158;24.748;2022-08-04T15:06:27;99310.41;;;35.41;23.42
18527;BME280;9393;42.158;24.748;2022-08-04T15:09:31;99308.72;;;35.23;23.69
18527;BME280;9393;42.158;24.748;2022-08-04T15:12:35;99310.06;;;35.34;23.65
18527;BME280;9393;42.158;24.748;2022-08-04T15:15:39;99308.94;;;35.57;23.14
18527;BME280;9393;42.158;24.748;2022-08-04T15:18:44;99302.53;;;35.84;23.59
18527;BME280;9393;42.158;24.748;2022-08-04T15:21:51;99299.09;;;35.61;22.39
18527;BME280;9393;42.158;24.748;2022-08-04T15:24:54;99298.56;;;35.90;22.47
18527;BME280;9393;42.158;24.748;2022-08-04T15:27:58;99294.63;;;35.65;23.47
18527;BME280;9393;42.158;24.748;2022-08-04T15:31:04;99299.09;;;35.61;23.53
18527;BME280;9393;42.158;24.748;2022-08-04T15:34:43;99303.78;;;35.25;23.20
18527;BME280;9393;42.158;24.748;2022-08-04T15:37:53;99296.63;;;34.84;23.28
18527;BME280;9393;42.158;24.748;2022-08-04T15:41:04;99295.50;;;35.08;22.77
18527;BME280;9393;42.158;24.748;2022-08-04T15:44:57;99301.53;;;35.05;23.46
18527;BME280;9393;42.158;24.748;2022-08-04T15:48:32;99293.25;;;34.65;23.54
18527;BME280;9393;42.158;24.748;2022-08-04T15:51:37;99300.00;;;34.54;23.56
18527;BME280;9393;42.158;24.748;2022-08-04T15:54:42;99294.16;;;34.74;23.87
18527;BME280;9393;42.158;24.748;2022-08-04T15:57:57;99292.97;;;34.67;23.03
18527;BME280;9393;42.158;24.748;2022-08-04T16:01:13;99293.69;;;34.45;23.55
18527;BME280;9393;42.158;24.748;2022-08-04T16:04:23;99298.81;;;34.33;23.71
18527;BME280;9393;42.158;24.748;2022-08-04T16:07:55;99301.03;;;34.80;23.08
18527;BME280;9393;42.158;24.748;2022-08-04T16:10:59;99297.75;;;35.06;23.63
18527;BME280;9393;42.158;24.748;2022-08-04T16:14:07;99299.22;;;35.34;23.25
18527;BME280;9393;42.158;24.748;2022-08-04T16:17:15;99301.78;;;35.39;22.57
18527;BME280;9393;42.158;24.748;2022-08-04T16:20:19;99307.22;;;35.39;22.28
18527;BME280;9393;42.158;24.748;2022-08-04T16:23:44;99302.91;;;35.38;22.25
18527;BME280;9393;42.158;24.748;2022-08-04T16:26:58;99295.13;;;35.45;21.95
18527;BME280;9393;42.158;24.748;2022-08-04T16:30:03;99294.66;;;35.21;22.42
18527;BME280;9393;42.158;24.748;2022-08-04T16:33:14;99296.47;;;34.89;22.84
18527;BME280;9393;42.158;24.748;2022-08-04T16:36:54;99297.16;;;34.59;22.82
18527;BME280;9393;42.158;24.748;2022-08-04T16:43:34;99295.53;;;34.22;23.78
18527;BME280;9393;42.158;24.748;2022-08-04T16:46:39;99298.13;;;34.14;23.97
18527;BME280;9393;42.158;24.748;2022-08-04T16:50:03;99298.03;;;34.19;24.05
18527;BME280;9393;42.158;24.748;2022-08-04T16:53:09;99308.19;;;34.13;24.43
18527;BME280;9393;42.158;24.748;2022-08-04T16:56:33;99306.94;;;33.92;24.83
18527;BME280;9393;42.158;24.748;2022-08-04T16:59:49;99320.47;;;33.78;25.18
18527;BME280;9393;42.158;24.748;2022-08-04T17:02:53;99316.88;;;33.50;25.41
18527;BME280;9393;42.158;24.748;2022-08-04T17:06:08;99324.16;;;33.36;26.00
18527;BME280;9393;42.158;24.748;2022-08-04T17:09:14;99324.81;;;33.28;26.58
18527;BME280;9393;42.158;24.748;2022-08-04T17:12:17;99332.13;;;33.09;26.68
18527;BME280;9393;42.158;24.748;2022-08-04T17:15:24;99327.25;;;33.11;26.82
18527;BME280;9393;42.158;24.748;2022-08-04T17:18:29;99326.16;;;32.93;26.86
18527;BME280;9393;42.158;24.748;2022-08-04T17:21:35;99330.19;;;32.96;26.69
18527;BME280;9393;42.158;24.748;2022-08-04T17:24:39;99333.88;;;33.00;27.04
18527;BME280;9393;42.158;24.748;2022-08-04T17:27:42;99340.69;;;32.97;27.17
18527;BME280;9393;42.158;24.748;2022-08-04T17:31:09;99340.41;;;32.80;27.23
18527;BME280;9393;42.158;24.748;2022-08-04T17:34:14;99345.75;;;32.85;27.42
18527;BME280;9393;42.158;24.748;2022-08-04T17:37:22;99344.78;;;32.76;27.72
18527;BME280;9393;42.158;24.748;2022-08-04T17:40:56;99346.97;;;32.74;27.93
18527;BME280;9393;42.158;24.748;2022-08-04T17:44:19;99347.56;;;32.71;27.94
18527;BME280;9393;42.158;24.748;2022-08-04T17:47:24;99350.41;;;32.61;27.73